createdAt,value
2019-06-01T00:00:27.276Z,13.20
2019-06-01T00:02:57.405Z,13.20
2019-06-01T00:05:26.979Z,13.20
2019-06-01T00:07:56.638Z,13.30
2019-06-01T00:10:26.149Z,13.30
2019-06-01T00:12:55.536Z,13.30
2019-06-01T00:15:24.942Z,13.40
2019-06-01T00:17:54.332Z,13.40
2019-06-01T00:20:23.734Z,13.40
2019-06-01T00:22:53.163Z,13.50
2019-06-01T00:25:22.569Z,13.50
2019-06-01T00:27:52.899Z,13.60
2019-06-01T00:30:26.850Z,13.60
2019-06-01T00:32:53.443Z,13.70
2019-06-01T00:35:22.820Z,13.70
2019-06-01T00:37:52.230Z,13.70
2019-06-01T00:40:21.615Z,13.70
2019-06-01T00:42:52.334Z,13.70
2019-06-01T00:45:21.825Z,13.70
2019-06-01T00:47:51.248Z,13.70
2019-06-01T00:50:20.620Z,13.80
2019-06-01T00:52:51.310Z,13.80
2019-06-01T00:55:20.726Z,13.80
2019-06-01T00:57:50.146Z,13.80
2019-06-01T01:00:19.582Z,13.80
2019-06-01T01:02:50.151Z,13.90
2019-06-01T01:05:20.215Z,13.90
2019-06-01T01:07:51.186Z,13.90
2019-06-01T01:10:22.198Z,14.00
2019-06-01T01:13:05.898Z,14.00
2019-06-01T01:15:35.939Z,14.00
2019-06-01T01:18:05.962Z,14.00
2019-06-01T01:20:35.829Z,14.00
2019-06-01T01:23:05.359Z,14.10
2019-06-01T01:25:34.795Z,14.00
2019-06-01T01:28:04.346Z,14.10
2019-06-01T01:30:33.747Z,14.10
2019-06-01T01:33:03.134Z,14.10
2019-06-01T01:35:32.612Z,14.10
2019-06-01T01:38:02.038Z,14.10
2019-06-01T01:40:31.450Z,14.10
2019-06-01T01:43:00.876Z,14.10
2019-06-01T01:45:30.258Z,14.10
2019-06-01T01:47:59.714Z,14.10
2019-06-01T01:50:29.503Z,14.10
2019-06-01T01:52:59.079Z,14.10
2019-06-01T01:55:28.514Z,14.20
2019-06-01T01:57:57.930Z,14.10
2019-06-01T02:00:44.939Z,14.10
2019-06-01T02:03:15.524Z,14.10
2019-06-01T02:05:44.903Z,14.10
2019-06-01T02:08:14.291Z,14.20
2019-06-01T02:10:43.790Z,14.10
2019-06-01T02:13:13.176Z,14.10
2019-06-01T02:15:42.880Z,14.20
2019-06-01T02:18:12.389Z,14.10
2019-06-01T02:20:41.754Z,14.20
2019-06-01T02:23:11.148Z,14.20
2019-06-01T02:25:40.591Z,14.20
2019-06-01T02:28:10.002Z,14.20
2019-06-01T02:30:39.386Z,14.20
2019-06-01T02:33:08.808Z,14.20
2019-06-01T02:35:38.181Z,14.20
2019-06-01T02:38:07.590Z,14.20
2019-06-01T02:40:37.323Z,14.30
2019-06-01T02:43:07.286Z,14.30
2019-06-01T02:45:36.772Z,14.30
2019-06-01T02:48:06.908Z,14.30
2019-06-01T02:50:36.493Z,14.30
2019-06-01T02:53:06.104Z,14.30
2019-06-01T02:55:35.496Z,14.40
2019-06-01T02:58:06.309Z,14.40
2019-06-01T03:01:23.043Z,14.40
2019-06-01T03:03:54.620Z,14.40
2019-06-01T03:06:24.494Z,14.40
2019-06-01T03:08:54.951Z,14.40
2019-06-01T03:11:26.890Z,14.40
2019-06-01T03:13:58.479Z,14.50
2019-06-01T03:16:30.699Z,14.50
2019-06-01T03:19:01.988Z,14.50
2019-06-01T03:21:34.444Z,14.50
2019-06-01T03:24:13.019Z,14.50
2019-06-01T03:26:45.598Z,14.50
2019-06-01T03:29:17.901Z,14.50
2019-06-01T03:31:47.383Z,14.50
2019-06-01T03:34:16.994Z,14.60
2019-06-01T03:36:46.422Z,14.50
2019-06-01T03:39:15.814Z,14.50
2019-06-01T03:41:46.050Z,14.50
2019-06-01T03:44:15.460Z,14.50
2019-06-01T03:46:44.898Z,14.50
2019-06-01T03:49:14.382Z,14.50
2019-06-01T03:51:43.863Z,14.50
2019-06-01T03:54:13.324Z,14.60
2019-06-01T03:56:42.673Z,14.50
2019-06-01T03:59:12.081Z,14.50
2019-06-01T04:01:41.467Z,14.60
2019-06-01T04:04:11.288Z,14.60
2019-06-01T04:06:40.747Z,14.60
2019-06-01T04:09:10.145Z,14.70
2019-06-01T04:11:39.531Z,14.70
2019-06-01T04:14:09.873Z,14.70
2019-06-01T04:16:42.344Z,14.80
2019-06-01T04:19:12.234Z,14.80
2019-06-01T04:21:41.618Z,14.80
2019-06-01T04:24:12.213Z,14.80
2019-06-01T04:26:41.889Z,14.80
2019-06-01T04:29:12.442Z,14.80
2019-06-01T04:31:41.922Z,14.80
2019-06-01T04:34:11.354Z,14.80
2019-06-01T04:36:40.750Z,14.80
2019-06-01T04:39:11.548Z,14.80
2019-06-01T04:41:41.010Z,14.80
2019-06-01T04:44:10.399Z,14.90
2019-06-01T04:46:39.854Z,15.00
2019-06-01T04:49:10.527Z,15.00
2019-06-01T04:51:40.174Z,15.00
2019-06-01T04:54:11.252Z,15.00
2019-06-01T04:56:40.670Z,15.10
2019-06-01T04:59:10.916Z,15.20
2019-06-01T05:01:40.370Z,15.20
2019-06-01T05:04:11.162Z,15.30
2019-06-01T05:06:40.580Z,15.30
2019-06-01T05:09:11.269Z,15.30
2019-06-01T05:11:40.714Z,15.30
2019-06-01T05:14:10.103Z,15.20
2019-06-01T05:16:39.526Z,15.20
2019-06-01T05:19:10.056Z,15.30
2019-06-01T05:21:39.587Z,15.30
2019-06-01T05:24:08.984Z,15.40
2019-06-01T05:26:38.445Z,15.50
2019-06-01T05:29:09.258Z,15.40
2019-06-01T05:31:38.775Z,15.50
2019-06-01T05:34:08.187Z,15.50
2019-06-01T05:36:37.605Z,15.50
2019-06-01T05:39:08.365Z,15.50
2019-06-01T05:41:37.808Z,15.60
2019-06-01T05:44:07.207Z,15.70
2019-06-01T05:46:36.583Z,16.00
2019-06-01T05:49:06.061Z,16.10
2019-06-01T05:51:35.483Z,16.20
2019-06-01T05:54:04.867Z,16.30
2019-06-01T05:56:34.258Z,16.50
2019-06-01T05:59:03.663Z,16.50
2019-06-01T06:01:33.059Z,16.50
2019-06-01T06:04:02.484Z,16.60
2019-06-01T06:06:31.858Z,16.50
2019-06-01T06:09:01.254Z,16.60
2019-06-01T06:11:30.663Z,16.60
2019-06-01T06:14:00.064Z,16.60
2019-06-01T06:16:29.446Z,16.60
2019-06-01T06:18:58.874Z,16.60
2019-06-01T06:21:28.284Z,16.60
2019-06-01T06:23:57.682Z,16.60
2019-06-01T06:26:27.201Z,16.50
2019-06-01T06:28:56.567Z,16.50
2019-06-01T06:31:25.966Z,16.50
2019-06-01T06:33:56.964Z,16.50
2019-06-01T06:36:26.567Z,16.50
2019-06-01T06:38:55.984Z,16.50
2019-06-01T06:41:25.432Z,16.50
2019-06-01T06:43:54.803Z,16.50
2019-06-01T06:46:24.888Z,16.50
2019-06-01T06:48:54.367Z,16.50
2019-06-01T06:51:23.816Z,16.50
2019-06-01T06:53:53.215Z,16.60
2019-06-01T06:56:22.617Z,16.70
2019-06-01T06:58:52.031Z,16.70
2019-06-01T07:01:22.890Z,16.80
2019-06-01T07:03:52.305Z,16.80
2019-06-01T07:06:21.708Z,16.90
2019-06-01T07:08:51.086Z,17.00
2019-06-01T07:11:21.215Z,17.00
2019-06-01T07:13:50.594Z,16.90
2019-06-01T07:16:20.015Z,16.90
2019-06-01T07:18:49.751Z,16.90
2019-06-01T07:21:19.578Z,16.90
2019-06-01T07:23:49.081Z,16.90
2019-06-01T07:26:18.729Z,16.90
2019-06-01T07:28:49.078Z,16.90
2019-06-01T07:31:18.463Z,16.90
2019-06-01T07:33:47.890Z,16.90
2019-06-01T07:36:17.279Z,16.90
2019-06-01T07:38:46.675Z,16.90
2019-06-01T07:41:16.082Z,16.90
2019-06-01T07:43:45.490Z,16.90
2019-06-01T07:46:14.877Z,16.80
2019-06-01T07:48:44.293Z,16.80
2019-06-01T07:51:13.689Z,16.80
2019-06-01T07:53:43.126Z,16.80
2019-06-01T07:56:12.535Z,16.70
2019-06-01T07:58:41.927Z,16.70
2019-06-01T08:01:11.315Z,16.70
2019-06-01T08:03:40.752Z,16.80
2019-06-01T08:06:10.156Z,16.80
2019-06-01T08:08:39.539Z,16.90
2019-06-01T08:11:09.008Z,16.90
2019-06-01T08:13:38.399Z,16.90
2019-06-01T08:16:07.795Z,17.00
2019-06-01T08:18:37.209Z,17.10
2019-06-01T08:21:06.600Z,17.20
2019-06-01T08:23:35.999Z,17.30
2019-06-01T08:26:05.610Z,17.30
2019-06-01T08:28:34.995Z,17.40
2019-06-01T08:31:04.528Z,17.60
2019-06-01T08:33:35.003Z,17.70
2019-06-01T08:36:04.505Z,17.80
2019-06-01T08:38:33.921Z,17.90
2019-06-01T08:41:03.317Z,17.90
2019-06-01T08:43:33.930Z,17.90
2019-06-01T08:46:03.390Z,17.90
2019-06-01T08:48:33.945Z,17.90
2019-06-01T08:51:03.483Z,18.00
2019-06-01T08:53:34.122Z,18.10
2019-06-01T08:56:03.624Z,18.10
2019-06-01T08:58:33.005Z,18.20
2019-06-01T09:01:02.415Z,18.20
2019-06-01T09:03:31.951Z,18.40
2019-06-01T09:06:01.369Z,18.60
2019-06-01T09:08:30.956Z,18.80
2019-06-01T09:11:00.342Z,18.90
2019-06-01T09:13:29.777Z,19.10
2019-06-01T09:15:59.167Z,19.20
2019-06-01T09:18:29.826Z,19.20
2019-06-01T09:20:59.278Z,19.20
2019-06-01T09:23:29.549Z,19.30
2019-06-01T09:25:58.998Z,19.30
2019-06-01T09:28:29.811Z,19.30
2019-06-01T09:30:59.354Z,19.30
2019-06-01T09:33:30.052Z,19.10
2019-06-01T09:35:59.511Z,19.10
2019-06-01T09:38:29.618Z,19.10
2019-06-01T09:40:59.185Z,19.10
2019-06-01T09:43:28.672Z,19.10
2019-06-01T09:45:58.108Z,19.20
2019-06-01T09:48:27.539Z,19.10
2019-06-01T09:50:56.930Z,19.10
2019-06-01T09:53:28.653Z,19.20
2019-06-01T09:55:57.466Z,19.30
2019-06-01T09:58:28.053Z,19.40
2019-06-01T10:00:57.613Z,19.50
2019-06-01T10:03:28.249Z,19.80
2019-06-01T10:06:01.810Z,20.00
2019-06-01T10:08:29.337Z,20.10
2019-06-01T10:10:58.771Z,20.20
2019-06-01T10:13:28.142Z,20.20
2019-06-01T10:16:00.488Z,20.30
2019-06-01T10:18:30.851Z,20.40
2019-06-01T10:21:00.403Z,20.50
2019-06-01T10:23:30.171Z,20.60
2019-06-01T10:25:59.591Z,20.70
2019-06-01T10:28:28.996Z,20.70
2019-06-01T10:30:58.419Z,20.80
2019-06-01T10:33:27.854Z,20.80
2019-06-01T10:35:57.247Z,20.80
2019-06-01T10:38:26.629Z,20.90
2019-06-01T10:40:56.042Z,20.80
2019-06-01T10:43:25.443Z,20.90
2019-06-01T10:45:54.840Z,20.90
2019-06-01T10:48:24.286Z,20.90
2019-06-01T10:50:53.656Z,20.90
2019-06-01T10:53:23.031Z,21.00
2019-06-01T10:55:52.471Z,21.10
2019-06-01T10:58:21.863Z,21.10
2019-06-01T11:00:51.653Z,21.10
2019-06-01T11:03:21.237Z,21.10
2019-06-01T11:05:50.635Z,21.20
2019-06-01T11:08:20.024Z,21.30
2019-06-01T11:10:49.470Z,21.40
2019-06-01T11:13:18.902Z,21.50
2019-06-01T11:15:48.313Z,21.50
2019-06-01T11:18:17.706Z,21.50
2019-06-01T11:20:47.123Z,21.40
2019-06-01T11:23:16.524Z,21.40
2019-06-01T11:25:46.051Z,21.40
2019-06-01T11:28:15.454Z,21.30
2019-06-01T11:30:44.833Z,21.30
2019-06-01T11:33:14.263Z,21.20
2019-06-01T11:35:43.654Z,21.20
2019-06-01T11:38:13.075Z,21.20
2019-06-01T11:40:42.810Z,21.30
2019-06-01T11:43:12.202Z,21.40
2019-06-01T11:45:42.837Z,21.40
2019-06-01T11:48:12.363Z,21.30
2019-06-01T11:50:43.007Z,21.20
2019-06-01T11:53:12.499Z,21.00
2019-06-01T11:55:43.275Z,20.80
2019-06-01T11:58:12.742Z,20.60
2019-06-01T12:00:42.151Z,20.60
2019-06-01T12:03:11.556Z,20.60
2019-06-01T12:05:42.101Z,20.70
2019-06-01T12:08:11.599Z,20.70
2019-06-01T12:10:41.133Z,20.70
2019-06-01T12:13:10.437Z,20.60
2019-06-01T12:15:40.266Z,20.50
2019-06-01T12:18:09.828Z,20.40
2019-06-01T12:20:39.219Z,20.20
2019-06-01T12:23:08.599Z,20.20
2019-06-01T12:25:38.306Z,20.20
2019-06-01T12:28:07.687Z,20.20
2019-06-01T12:30:37.526Z,20.20
2019-06-01T12:33:07.200Z,20.20
2019-06-01T12:35:37.813Z,20.20
2019-06-01T12:38:07.305Z,20.20
2019-06-01T12:40:36.678Z,20.20
2019-06-01T12:43:06.065Z,20.40
2019-06-01T12:45:35.430Z,20.40
2019-06-01T12:48:04.927Z,20.50
2019-06-01T12:50:34.280Z,20.60
2019-06-01T12:53:03.675Z,20.70
2019-06-01T12:55:33.074Z,20.80
2019-06-01T12:58:02.510Z,20.90
2019-06-01T13:00:31.898Z,21.00
2019-06-01T13:03:07.450Z,21.10
2019-06-01T13:05:32.411Z,21.30
2019-06-01T13:08:03.064Z,21.30
2019-06-01T13:10:32.672Z,21.30
2019-06-01T13:13:02.067Z,21.30
2019-06-01T13:15:31.466Z,21.30
2019-06-01T13:18:00.925Z,21.40
2019-06-01T13:20:30.304Z,21.40
2019-06-01T13:22:59.829Z,21.30
2019-06-01T13:25:29.236Z,21.20
2019-06-01T13:27:58.939Z,21.10
2019-06-01T13:30:28.314Z,21.00
2019-06-01T13:32:57.742Z,20.90
2019-06-01T13:35:27.134Z,20.90
2019-06-01T13:38:10.721Z,20.90
2019-06-01T13:40:27.595Z,20.90
2019-06-01T13:42:57.078Z,20.90
2019-06-01T13:45:26.471Z,21.00
2019-06-01T13:47:55.879Z,21.10
2019-06-01T13:50:25.266Z,21.20
2019-06-01T13:52:54.666Z,21.20
2019-06-01T13:55:24.091Z,21.30
2019-06-01T13:57:54.549Z,21.30
2019-06-01T14:00:30.126Z,21.20
2019-06-01T14:02:57.521Z,21.10
2019-06-01T14:05:26.111Z,20.90
2019-06-01T14:07:55.788Z,20.80
2019-06-01T14:10:25.174Z,20.80
2019-06-01T14:12:55.590Z,20.80
2019-06-01T14:15:24.921Z,20.90
2019-06-01T14:17:54.628Z,20.80
2019-06-01T14:20:24.048Z,20.80
2019-06-01T14:22:54.023Z,20.80
2019-06-01T14:25:23.479Z,20.70
2019-06-01T14:27:54.297Z,20.60
2019-06-01T14:30:24.216Z,20.70
2019-06-01T14:32:54.460Z,20.80
2019-06-01T14:35:23.874Z,20.90
2019-06-01T14:37:53.775Z,21.00
2019-06-01T14:40:24.430Z,21.20
2019-06-01T14:42:53.821Z,21.20
2019-06-01T14:45:23.178Z,21.10
2019-06-01T14:47:53.499Z,21.10
2019-06-01T14:50:22.876Z,21.20
2019-06-01T14:52:53.593Z,21.30
2019-06-01T14:55:23.087Z,21.30
2019-06-01T14:57:52.565Z,21.40
2019-06-01T15:00:22.350Z,21.50
2019-06-01T15:02:52.173Z,21.50
2019-06-01T15:05:21.578Z,21.60
2019-06-01T15:07:52.364Z,21.70
2019-06-01T15:10:21.858Z,21.70
2019-06-01T15:12:55.458Z,21.60
2019-06-01T15:15:22.387Z,21.40
2019-06-01T15:17:51.866Z,21.20
2019-06-01T15:20:21.198Z,21.10
2019-06-01T15:22:50.575Z,20.90
2019-06-01T15:25:19.987Z,20.90
2019-06-01T15:27:50.575Z,20.90
2019-06-01T15:30:20.678Z,21.00
2019-06-01T15:32:50.158Z,21.10
2019-06-01T15:35:19.542Z,21.10
2019-06-01T15:37:51.951Z,21.20
2019-06-01T15:40:22.658Z,21.20
2019-06-01T15:42:53.511Z,21.40
2019-06-01T15:45:22.987Z,21.70
2019-06-01T15:47:53.315Z,22.00
2019-06-01T15:50:22.702Z,22.50
2019-06-01T15:52:53.000Z,22.80
2019-06-01T15:55:22.484Z,23.50
2019-06-01T15:57:52.228Z,24.10
2019-06-01T16:00:22.659Z,24.40
2019-06-01T16:02:52.838Z,24.20
2019-06-01T16:05:22.248Z,24.20
2019-06-01T16:07:53.003Z,24.50
2019-06-01T16:10:22.606Z,25.00
2019-06-01T16:12:53.258Z,25.20
2019-06-01T16:15:22.694Z,24.80
2019-06-01T16:17:52.134Z,24.90
2019-06-01T16:20:21.607Z,25.20
2019-06-01T16:22:51.018Z,25.00
2019-06-01T16:25:20.431Z,24.10
2019-06-01T16:27:49.824Z,23.30
2019-06-01T16:30:19.419Z,22.60
2019-06-01T16:32:48.903Z,22.00
2019-06-01T16:35:18.351Z,21.50
2019-06-01T16:37:47.751Z,21.10
2019-06-01T16:40:17.286Z,20.90
2019-06-01T16:42:46.686Z,20.60
2019-06-01T16:45:16.186Z,20.40
2019-06-01T16:47:45.605Z,20.10
2019-06-01T16:50:15.003Z,19.80
2019-06-01T16:52:44.374Z,19.50
2019-06-01T16:55:14.001Z,19.30
2019-06-01T16:57:43.387Z,19.70
2019-06-01T17:00:13.550Z,20.30
2019-06-01T17:02:42.974Z,20.70
2019-06-01T17:05:14.066Z,20.70
2019-06-01T17:07:43.478Z,21.00
2019-06-01T17:10:25.515Z,21.40
2019-06-01T17:12:45.141Z,22.00
2019-06-01T17:15:15.123Z,22.50
2019-06-01T17:17:44.512Z,22.70
2019-06-01T17:20:38.744Z,22.70
2019-06-01T17:23:24.462Z,22.60
2019-06-01T17:25:39.239Z,22.50
2019-06-01T17:28:09.293Z,22.40
2019-06-01T17:30:38.858Z,22.10
2019-06-01T17:33:08.643Z,21.50
2019-06-01T17:35:38.048Z,20.70
2019-06-01T17:38:07.513Z,20.00
2019-06-01T17:40:41.351Z,19.40
2019-06-01T17:43:08.931Z,18.90
2019-06-01T17:45:38.499Z,18.40
2019-06-01T17:48:21.878Z,18.10
2019-06-01T17:50:39.290Z,17.80
2019-06-01T17:53:08.910Z,17.60
2019-06-01T17:55:39.361Z,17.40
2019-06-01T17:58:10.068Z,17.30
2019-06-01T18:00:40.411Z,17.00
2019-06-01T18:03:10.236Z,16.90
2019-06-01T18:05:39.854Z,16.80
2019-06-01T18:08:10.371Z,16.70
2019-06-01T18:10:53.120Z,16.60
2019-06-01T18:13:12.957Z,16.60
2019-06-01T18:15:42.444Z,16.50
2019-06-01T18:18:12.894Z,16.40
2019-06-01T18:20:42.478Z,16.30
2019-06-01T18:23:13.232Z,16.20
2019-06-01T18:25:42.946Z,16.20
2019-06-01T18:28:17.184Z,16.10
2019-06-01T18:30:43.434Z,16.00
2019-06-01T18:33:13.196Z,16.00
2019-06-01T18:35:42.667Z,15.90
2019-06-01T18:38:12.975Z,15.90
2019-06-01T18:40:43.166Z,15.90
2019-06-01T18:43:15.920Z,15.80
2019-06-01T18:45:46.715Z,15.90
2019-06-01T18:48:16.362Z,16.00
2019-06-01T18:50:45.870Z,16.00
2019-06-01T18:53:15.270Z,16.00
2019-06-01T18:55:44.758Z,15.90
2019-06-01T18:58:14.786Z,15.80
2019-06-01T19:00:44.531Z,15.70
2019-06-01T19:03:15.327Z,15.60
2019-06-01T19:05:44.994Z,15.40
2019-06-01T19:08:15.880Z,15.30
2019-06-01T19:10:46.089Z,15.20
2019-06-01T19:13:16.071Z,15.00
2019-06-01T19:15:45.488Z,14.90
2019-06-01T19:18:14.931Z,14.80
2019-06-01T19:20:44.320Z,14.70
2019-06-01T19:23:14.814Z,14.60
2019-06-01T19:25:44.274Z,14.50
2019-06-01T19:28:15.186Z,14.40
2019-06-01T19:30:44.985Z,14.30
2019-06-01T19:33:17.487Z,14.20
2019-06-01T19:35:45.542Z,14.10
2019-06-01T19:38:15.459Z,14.00
2019-06-01T19:40:44.939Z,13.90
2019-06-01T19:43:15.532Z,13.80
2019-06-01T19:45:45.072Z,13.70
2019-06-01T19:48:14.761Z,13.60
2019-06-01T19:50:44.542Z,13.50
2019-06-01T19:53:14.773Z,13.50
2019-06-01T19:55:44.262Z,13.40
2019-06-01T19:58:14.332Z,13.30
2019-06-01T20:00:43.876Z,13.30
2019-06-01T20:03:14.358Z,13.30
2019-06-01T20:05:44.176Z,13.20
2019-06-01T20:08:14.267Z,13.10
2019-06-01T20:10:43.688Z,13.10
2019-06-01T20:13:13.169Z,13.10
2019-06-01T20:15:42.554Z,13.10
2019-06-01T20:18:12.814Z,13.00
2019-06-01T20:20:42.360Z,13.00
2019-06-01T20:23:13.044Z,12.90
2019-06-01T20:25:42.598Z,12.90
2019-06-01T20:28:13.393Z,12.90
2019-06-01T20:30:42.927Z,12.90
2019-06-01T20:33:13.949Z,12.90
2019-06-01T20:35:43.478Z,12.80
2019-06-01T20:38:14.279Z,12.80
2019-06-01T20:40:43.875Z,12.80
2019-06-01T20:43:14.518Z,12.80
2019-06-01T20:45:44.116Z,12.80
2019-06-01T20:48:14.855Z,12.80
2019-06-01T20:50:44.522Z,12.70
2019-06-01T20:53:14.865Z,12.70
2019-06-01T20:55:44.330Z,12.70
2019-06-01T20:58:13.923Z,12.70
2019-06-01T21:00:43.363Z,12.70
2019-06-01T21:03:13.736Z,12.70
2019-06-01T21:05:43.190Z,12.70
2019-06-01T21:08:13.891Z,12.70
2019-06-01T21:10:43.382Z,12.60
2019-06-01T21:13:14.054Z,12.60
2019-06-01T21:15:43.566Z,12.60
2019-06-01T21:18:14.166Z,12.60
2019-06-01T21:20:43.774Z,12.60
2019-06-01T21:23:14.343Z,12.60
2019-06-01T21:25:43.839Z,12.50
2019-06-01T21:28:14.891Z,12.50
2019-06-01T21:30:44.375Z,12.50
2019-06-01T21:33:14.902Z,12.50
2019-06-01T21:35:44.401Z,12.50
2019-06-01T21:38:13.824Z,12.50
2019-06-01T21:40:43.312Z,12.50
2019-06-01T21:43:23.838Z,12.50
2019-06-01T21:45:44.438Z,12.40
2019-06-01T21:48:13.851Z,12.40
2019-06-01T21:50:43.358Z,12.40
2019-06-01T21:53:15.939Z,12.30
2019-06-01T21:55:45.472Z,12.40
2019-06-01T21:58:16.344Z,12.30
2019-06-01T22:00:47.622Z,12.30
2019-06-01T22:03:17.181Z,12.30
2019-06-01T22:05:46.599Z,12.30
2019-06-01T22:08:17.139Z,12.20
2019-06-01T22:10:46.642Z,12.20
2019-06-01T22:13:19.263Z,12.20
2019-06-01T22:15:47.171Z,12.20
2019-06-01T22:18:17.617Z,12.20
2019-06-01T22:20:46.999Z,12.20
2019-06-01T22:23:17.812Z,12.20
2019-06-01T22:25:47.342Z,12.20
2019-06-01T22:28:18.065Z,12.20
2019-06-01T22:30:47.459Z,12.20
2019-06-01T22:33:16.912Z,12.20
2019-06-01T22:35:46.277Z,12.30
2019-06-01T22:38:15.700Z,12.30
2019-06-01T22:40:45.119Z,12.30
2019-06-01T22:43:14.525Z,12.30
2019-06-01T22:45:43.947Z,12.30
2019-06-01T22:48:13.385Z,12.30
2019-06-01T22:50:42.864Z,12.20
2019-06-01T22:53:12.283Z,12.30
2019-06-01T22:55:41.738Z,12.20
2019-06-01T22:58:11.140Z,12.20
2019-06-01T23:00:40.651Z,12.20
2019-06-01T23:03:10.112Z,12.10
2019-06-01T23:05:39.624Z,12.10
2019-06-01T23:08:09.034Z,12.10
2019-06-01T23:10:38.495Z,12.10
2019-06-01T23:13:07.923Z,12.10
2019-06-01T23:15:37.385Z,12.10
2019-06-01T23:18:06.842Z,12.00
2019-06-01T23:20:36.260Z,12.00
2019-06-01T23:23:05.708Z,12.00
2019-06-01T23:25:35.150Z,11.90
2019-06-01T23:28:04.592Z,11.90
2019-06-01T23:30:33.952Z,11.80
2019-06-01T23:33:03.435Z,11.80
2019-06-01T23:35:32.836Z,11.80
2019-06-01T23:38:02.270Z,11.80
2019-06-01T23:40:32.759Z,11.70
2019-06-01T23:43:02.208Z,11.70
2019-06-01T23:45:32.886Z,11.70
2019-06-01T23:48:02.522Z,11.60
2019-06-01T23:50:32.516Z,11.60
2019-06-01T23:53:13.251Z,11.60
2019-06-01T23:55:34.121Z,11.60
2019-06-01T23:58:03.660Z,11.50
